createdAt,value
2023-07-11T00:00:47.164Z,988.69
2023-07-11T00:01:47.120Z,988.69
2023-07-11T00:02:47.255Z,988.69
2023-07-11T00:03:47.150Z,988.67
2023-07-11T00:04:47.112Z,988.66
2023-07-11T00:05:47.101Z,988.64
2023-07-11T00:06:47.086Z,988.63
2023-07-11T00:07:47.114Z,988.62
2023-07-11T00:08:47.073Z,988.62
2023-07-11T00:09:47.034Z,988.61
2023-07-11T00:10:47.043Z,988.61
2023-07-11T00:11:47.016Z,988.61
2023-07-11T00:12:47.025Z,988.61
2023-07-11T00:13:47.037Z,988.60
2023-07-11T00:14:46.989Z,988.59
2023-07-11T00:15:46.982Z,988.58
2023-07-11T00:16:47.007Z,988.57
2023-07-11T00:17:47.055Z,988.56
2023-07-11T00:18:46.971Z,988.56
2023-07-11T00:19:46.957Z,988.56
2023-07-11T00:20:46.936Z,988.55
2023-07-11T00:21:46.929Z,988.55
2023-07-11T00:22:46.952Z,988.55
2023-07-11T00:23:46.914Z,988.56
2023-07-11T00:24:46.870Z,988.57
2023-07-11T00:25:46.874Z,988.58
2023-07-11T00:26:46.876Z,988.59
2023-07-11T00:27:46.849Z,988.58
2023-07-11T00:28:46.894Z,988.58
2023-07-11T00:29:46.913Z,988.57
2023-07-11T00:30:46.845Z,988.56
2023-07-11T00:31:46.838Z,988.56
2023-07-11T00:32:46.932Z,988.57
2023-07-11T00:33:46.810Z,988.56
2023-07-11T00:34:46.811Z,988.56
2023-07-11T00:35:46.774Z,988.56
2023-07-11T00:36:46.757Z,988.55
2023-07-11T00:37:46.747Z,988.54
2023-07-11T00:38:46.769Z,988.53
2023-07-11T00:39:46.733Z,988.52
2023-07-11T00:40:46.749Z,988.52
2023-07-11T00:41:46.723Z,988.52
2023-07-11T00:42:46.713Z,988.53
2023-07-11T00:43:46.729Z,988.54
2023-07-11T00:44:46.692Z,988.55
2023-07-11T00:45:46.678Z,988.56
2023-07-11T00:46:46.832Z,988.57
2023-07-11T00:47:46.688Z,988.56
2023-07-11T00:48:46.645Z,988.55
2023-07-11T00:49:46.698Z,988.54
2023-07-11T00:50:46.616Z,988.52
2023-07-11T00:51:46.598Z,988.51
2023-07-11T00:52:46.600Z,988.51
2023-07-11T00:53:46.580Z,988.51
2023-07-11T00:54:46.579Z,988.51
2023-07-11T00:55:46.590Z,988.51
2023-07-11T00:56:46.581Z,988.52
2023-07-11T00:57:46.572Z,988.51
2023-07-11T00:58:46.596Z,988.51
2023-07-11T00:59:46.530Z,988.51
2023-07-11T01:00:46.644Z,988.51
2023-07-11T01:01:46.537Z,988.51
2023-07-11T01:02:46.605Z,988.51
2023-07-11T01:03:46.600Z,988.50
2023-07-11T01:04:46.463Z,988.50
2023-07-11T01:05:46.460Z,988.49
2023-07-11T01:06:46.446Z,988.50
2023-07-11T01:07:46.473Z,988.50
2023-07-11T01:08:46.433Z,988.49
2023-07-11T01:09:46.445Z,988.49
2023-07-11T01:10:46.409Z,988.48
2023-07-11T01:11:46.412Z,988.48
2023-07-11T01:12:46.384Z,988.48
2023-07-11T01:13:46.411Z,988.49
2023-07-11T01:14:46.380Z,988.51
2023-07-11T01:15:46.354Z,988.52
2023-07-11T01:16:46.423Z,988.52
2023-07-11T01:17:46.346Z,988.52
2023-07-11T01:18:46.325Z,988.51
2023-07-11T01:19:46.322Z,988.50
2023-07-11T01:20:46.302Z,988.48
2023-07-11T01:21:46.298Z,988.47
2023-07-11T01:22:46.321Z,988.47
2023-07-11T01:23:48.472Z,988.48
2023-07-11T01:24:46.276Z,988.48
2023-07-11T01:25:46.275Z,988.49
2023-07-11T01:26:46.244Z,988.50
2023-07-11T01:27:46.242Z,988.50
2023-07-11T01:28:46.276Z,988.49
2023-07-11T01:29:46.307Z,988.48
2023-07-11T01:30:46.263Z,988.47
2023-07-11T01:31:46.190Z,988.45
2023-07-11T01:32:46.343Z,988.44
2023-07-11T01:33:46.163Z,988.42
2023-07-11T01:34:46.285Z,988.42
2023-07-11T01:35:46.188Z,988.44
2023-07-11T01:36:46.144Z,988.45
2023-07-11T01:37:46.119Z,988.46
2023-07-11T01:38:46.135Z,988.45
2023-07-11T01:39:46.106Z,988.44
2023-07-11T01:40:46.110Z,988.44
2023-07-11T01:41:46.085Z,988.44
2023-07-11T01:42:46.054Z,988.44
2023-07-11T01:43:46.075Z,988.44
2023-07-11T01:44:46.070Z,988.44
2023-07-11T01:45:46.039Z,988.43
2023-07-11T01:46:46.070Z,988.42
2023-07-11T01:47:46.064Z,988.41
2023-07-11T01:48:46.020Z,988.39
2023-07-11T01:49:46.005Z,988.36
2023-07-11T01:50:46.025Z,988.34
2023-07-11T01:51:45.955Z,988.32
2023-07-11T01:52:45.968Z,988.32
2023-07-11T01:53:45.937Z,988.32
2023-07-11T01:54:45.935Z,988.31
2023-07-11T01:55:45.963Z,988.30
2023-07-11T01:56:45.900Z,988.30
2023-07-11T01:57:45.909Z,988.28
2023-07-11T01:58:45.920Z,988.28
2023-07-11T01:59:45.889Z,988.27
2023-07-11T02:00:45.876Z,988.27
2023-07-11T02:01:45.975Z,988.27
2023-07-11T02:02:45.956Z,988.26
2023-07-11T02:03:46.109Z,988.25
2023-07-11T02:04:45.865Z,988.24
2023-07-11T02:05:45.847Z,988.22
2023-07-11T02:06:45.812Z,988.21
2023-07-11T02:07:45.823Z,988.19
2023-07-11T02:08:45.777Z,988.18
2023-07-11T02:09:45.795Z,988.17
2023-07-11T02:10:45.780Z,988.15
2023-07-11T02:11:45.764Z,988.13
2023-07-11T02:12:45.790Z,988.12
2023-07-11T02:13:45.798Z,988.11
2023-07-11T02:14:45.759Z,988.11
2023-07-11T02:15:45.723Z,988.10
2023-07-11T02:16:45.870Z,988.10
2023-07-11T02:17:45.811Z,988.10
2023-07-11T02:18:45.689Z,988.10
2023-07-11T02:19:45.678Z,988.09
2023-07-11T02:20:45.704Z,988.09
2023-07-11T02:21:45.647Z,988.08
2023-07-11T02:22:45.648Z,988.08
2023-07-11T02:23:45.686Z,988.08
2023-07-11T02:24:45.666Z,988.08
2023-07-11T02:25:45.626Z,988.09
2023-07-11T02:26:45.625Z,988.08
2023-07-11T02:27:45.614Z,988.08
2023-07-11T02:28:45.591Z,988.07
2023-07-11T02:29:45.580Z,988.07
2023-07-11T02:30:45.582Z,988.05
2023-07-11T02:31:45.634Z,988.04
2023-07-11T02:32:45.603Z,988.03
2023-07-11T02:33:45.538Z,988.03
2023-07-11T02:34:45.516Z,988.02
2023-07-11T02:35:45.524Z,988.01
2023-07-11T02:36:45.513Z,988.00
2023-07-11T02:37:45.506Z,987.99
2023-07-11T02:38:45.497Z,987.98
2023-07-11T02:39:45.513Z,987.97
2023-07-11T02:40:45.479Z,987.98
2023-07-11T02:41:45.482Z,987.98
2023-07-11T02:42:45.450Z,987.99
2023-07-11T02:43:45.428Z,988.00
2023-07-11T02:44:45.400Z,988.00
2023-07-11T02:45:45.483Z,987.99
2023-07-11T02:46:45.389Z,987.99
2023-07-11T02:47:45.439Z,987.98
2023-07-11T02:48:45.382Z,987.97
2023-07-11T02:49:45.385Z,987.97
2023-07-11T02:50:45.370Z,987.97
2023-07-11T02:51:45.413Z,987.98
2023-07-11T02:52:45.375Z,987.99
2023-07-11T02:53:45.346Z,987.99
2023-07-11T02:54:45.354Z,987.99
2023-07-11T02:55:45.324Z,987.99
2023-07-11T02:56:45.344Z,987.99
2023-07-11T02:57:45.295Z,987.99
2023-07-11T02:58:45.257Z,987.98
2023-07-11T02:59:45.268Z,987.99
2023-07-11T03:00:45.249Z,987.99
2023-07-11T03:01:45.313Z,987.98
2023-07-11T03:02:45.311Z,987.97
2023-07-11T03:03:45.287Z,987.96
2023-07-11T03:04:45.274Z,987.95
2023-07-11T03:05:45.231Z,987.94
2023-07-11T03:06:45.185Z,987.92
2023-07-11T03:07:45.212Z,987.91
2023-07-11T03:08:45.181Z,987.89
2023-07-11T03:09:45.167Z,987.88
2023-07-11T03:10:45.156Z,987.87
2023-07-11T03:11:45.129Z,987.86
2023-07-11T03:12:45.127Z,987.84
2023-07-11T03:13:45.169Z,987.83
2023-07-11T03:14:45.109Z,987.82
2023-07-11T03:15:45.178Z,987.82
2023-07-11T03:16:45.093Z,987.82
2023-07-11T03:17:45.142Z,987.82
2023-07-11T03:18:45.054Z,987.83
2023-07-11T03:19:45.081Z,987.84
2023-07-11T03:20:45.045Z,987.83
2023-07-11T03:21:45.058Z,987.82
2023-07-11T03:22:45.020Z,987.81
2023-07-11T03:23:45.040Z,987.81
2023-07-11T03:24:45.026Z,987.81
2023-07-11T03:25:44.994Z,987.80
2023-07-11T03:26:45.014Z,987.80
2023-07-11T03:27:44.980Z,987.78
2023-07-11T03:28:44.958Z,987.78
2023-07-11T03:29:44.950Z,987.78
2023-07-11T03:30:44.982Z,987.78
2023-07-11T03:31:44.939Z,987.78
2023-07-11T03:32:44.927Z,987.78
2023-07-11T03:33:44.913Z,987.76
2023-07-11T03:34:53.649Z,987.76
2023-07-11T03:35:44.907Z,987.74
2023-07-11T03:36:44.894Z,987.73
2023-07-11T03:37:44.884Z,987.72
2023-07-11T03:38:44.869Z,987.72
2023-07-11T03:39:44.864Z,987.72
2023-07-11T03:40:44.836Z,987.73
2023-07-11T03:41:44.860Z,987.73
2023-07-11T03:42:44.823Z,987.73
2023-07-11T03:43:44.810Z,987.74
2023-07-11T03:44:44.791Z,987.74
2023-07-11T03:45:45.773Z,987.74
2023-07-11T03:46:44.812Z,987.74
2023-07-11T03:47:44.860Z,987.73
2023-07-11T03:48:44.753Z,987.72
2023-07-11T03:49:44.759Z,987.72
2023-07-11T03:50:44.735Z,987.70
2023-07-11T03:51:46.034Z,987.69
2023-07-11T03:52:44.703Z,987.67
2023-07-11T03:53:44.708Z,987.66
2023-07-11T03:54:44.669Z,987.64
2023-07-11T03:55:44.702Z,987.63
2023-07-11T03:56:44.669Z,987.62
2023-07-11T03:57:44.670Z,987.61
2023-07-11T03:58:44.683Z,987.61
2023-07-11T03:59:44.640Z,987.61
2023-07-11T04:00:44.796Z,987.61
2023-07-11T04:01:44.638Z,987.61
2023-07-11T04:02:44.760Z,987.61
2023-07-11T04:03:44.800Z,987.63
2023-07-11T04:04:44.602Z,987.64
2023-07-11T04:05:44.590Z,987.65
2023-07-11T04:06:44.631Z,987.64
2023-07-11T04:07:44.536Z,987.63
2023-07-11T04:08:44.536Z,987.62
2023-07-11T04:09:44.533Z,987.62
2023-07-11T04:10:44.516Z,987.62
2023-07-11T04:11:44.497Z,987.61
2023-07-11T04:12:44.524Z,987.61
2023-07-11T04:13:44.514Z,987.61
2023-07-11T04:14:44.495Z,987.60
2023-07-11T04:15:44.465Z,987.60
2023-07-11T04:16:44.509Z,987.60
2023-07-11T04:17:44.577Z,987.60
2023-07-11T04:18:44.457Z,987.59
2023-07-11T04:19:44.411Z,987.58
2023-07-11T04:20:44.398Z,987.57
2023-07-11T04:21:44.404Z,987.56
2023-07-11T04:22:44.377Z,987.56
2023-07-11T04:23:44.398Z,987.56
2023-07-11T04:24:44.392Z,987.56
2023-07-11T04:25:44.422Z,987.56
2023-07-11T04:26:44.389Z,987.56
2023-07-11T04:27:44.363Z,987.57
2023-07-11T04:28:44.377Z,987.57
2023-07-11T04:29:44.316Z,987.58
2023-07-11T04:30:44.362Z,987.59
2023-07-11T04:31:44.312Z,987.60
2023-07-11T04:32:44.342Z,987.60
2023-07-11T04:33:44.300Z,987.60
2023-07-11T04:34:44.247Z,987.60
2023-07-11T04:35:44.254Z,987.59
2023-07-11T04:36:44.226Z,987.59
2023-07-11T04:37:44.243Z,987.59
2023-07-11T04:38:44.216Z,987.60
2023-07-11T04:39:44.244Z,987.59
2023-07-11T04:40:44.211Z,987.59
2023-07-11T04:41:44.203Z,987.57
2023-07-11T04:42:44.193Z,987.56
2023-07-11T04:43:44.179Z,987.56
2023-07-11T04:44:44.176Z,987.55
2023-07-11T04:45:44.189Z,987.55
2023-07-11T04:46:44.181Z,987.56
2023-07-11T04:47:47.212Z,987.56
2023-07-11T04:48:44.117Z,987.56
2023-07-11T04:49:44.185Z,987.56
2023-07-11T04:50:44.086Z,987.57
2023-07-11T04:51:44.142Z,987.57
2023-07-11T04:52:44.089Z,987.57
2023-07-11T04:53:44.077Z,987.56
2023-07-11T04:54:44.047Z,987.54
2023-07-11T04:55:44.051Z,987.54
2023-07-11T04:56:44.027Z,987.53
2023-07-11T04:57:44.026Z,987.54
2023-07-11T04:58:44.008Z,987.54
2023-07-11T04:59:43.998Z,987.55
2023-07-11T05:00:44.014Z,987.56
2023-07-11T05:01:44.030Z,987.57
2023-07-11T05:02:44.000Z,987.57
2023-07-11T05:03:44.155Z,987.56
2023-07-11T05:04:43.953Z,987.55
2023-07-11T05:05:43.970Z,987.54
2023-07-11T05:06:43.929Z,987.54
2023-07-11T05:07:43.928Z,987.52
2023-07-11T05:08:43.927Z,987.52
2023-07-11T05:09:58.793Z,987.51
2023-07-11T05:10:43.946Z,987.52
2023-07-11T05:11:43.872Z,987.51
2023-07-11T05:12:43.990Z,987.51
2023-07-11T05:13:43.881Z,987.50
2023-07-11T05:14:43.830Z,987.49
2023-07-11T05:15:43.843Z,987.48
2023-07-11T05:16:43.955Z,987.47
2023-07-11T05:17:43.838Z,987.45
2023-07-11T05:18:45.700Z,987.44
2023-07-11T05:19:43.796Z,987.44
2023-07-11T05:20:43.826Z,987.44
2023-07-11T05:21:43.822Z,987.44
2023-07-11T05:22:43.780Z,987.45
2023-07-11T05:23:43.810Z,987.45
2023-07-11T05:24:43.780Z,987.46
2023-07-11T05:25:43.839Z,987.46
2023-07-11T05:26:43.748Z,987.45
2023-07-11T05:27:43.737Z,987.44
2023-07-11T05:28:43.711Z,987.44
2023-07-11T05:29:43.684Z,987.43
2023-07-11T05:30:43.677Z,987.44
2023-07-11T05:31:43.694Z,987.43
2023-07-11T05:32:43.705Z,987.42
2023-07-11T05:33:43.640Z,987.41
2023-07-11T05:34:43.639Z,987.41
2023-07-11T05:35:43.638Z,987.40
2023-07-11T05:36:43.643Z,987.39
2023-07-11T05:37:43.636Z,987.39
2023-07-11T05:38:43.597Z,987.38
2023-07-11T05:39:43.585Z,987.38
2023-07-11T05:40:43.580Z,987.38
2023-07-11T05:41:43.573Z,987.39
2023-07-11T05:42:43.570Z,987.40
2023-07-11T05:43:43.565Z,987.40
2023-07-11T05:44:43.531Z,987.39
2023-07-11T05:45:43.534Z,987.38
2023-07-11T05:46:46.409Z,987.37
2023-07-11T05:47:43.544Z,987.35
2023-07-11T05:48:43.509Z,987.34
2023-07-11T05:49:43.502Z,987.34
2023-07-11T05:50:43.471Z,987.32
2023-07-11T05:51:43.467Z,987.31
2023-07-11T05:52:43.452Z,987.30
2023-07-11T05:53:43.433Z,987.29
2023-07-11T05:54:43.451Z,987.27
2023-07-11T05:55:43.447Z,987.26
2023-07-11T05:56:43.409Z,987.24
2023-07-11T05:57:43.381Z,987.22
2023-07-11T05:58:43.393Z,987.21
2023-07-11T05:59:43.388Z,987.20
2023-07-11T06:00:43.379Z,987.18
2023-07-11T06:01:43.424Z,987.18
2023-07-11T06:02:43.362Z,987.19
2023-07-11T06:03:43.369Z,987.19
2023-07-11T06:04:43.358Z,987.19
2023-07-11T06:05:43.318Z,987.19
2023-07-11T06:06:43.758Z,987.17
2023-07-11T06:07:43.290Z,987.16
2023-07-11T06:08:43.287Z,987.13
2023-07-11T06:09:43.272Z,987.12
2023-07-11T06:10:43.311Z,987.11
2023-07-11T06:11:43.255Z,987.11
2023-07-11T06:12:43.242Z,987.12
2023-07-11T06:13:43.264Z,987.11
2023-07-11T06:14:43.369Z,987.10
2023-07-11T06:15:43.244Z,987.09
2023-07-11T06:16:43.243Z,987.07
2023-07-11T06:17:43.218Z,987.07
2023-07-11T06:18:43.220Z,987.06
2023-07-11T06:19:43.186Z,987.05
2023-07-11T06:20:43.166Z,987.02
2023-07-11T06:21:43.203Z,987.01
2023-07-11T06:22:43.136Z,986.99
2023-07-11T06:23:43.146Z,986.97
2023-07-11T06:24:44.722Z,986.96
2023-07-11T06:25:43.091Z,986.95
2023-07-11T06:26:43.093Z,986.95
2023-07-11T06:27:43.158Z,986.94
2023-07-11T06:28:43.101Z,986.94
2023-07-11T06:29:43.071Z,986.94
2023-07-11T06:30:43.082Z,986.93
2023-07-11T06:31:43.049Z,986.92
2023-07-11T06:32:43.053Z,986.91
2023-07-11T06:33:43.099Z,986.89
2023-07-11T06:34:43.013Z,986.90
2023-07-11T06:35:43.014Z,986.91
2023-07-11T06:36:42.986Z,986.92
2023-07-11T06:37:42.967Z,986.93
2023-07-11T06:38:42.962Z,986.94
2023-07-11T06:39:42.999Z,986.94
2023-07-11T06:40:42.950Z,986.94
2023-07-11T06:41:42.969Z,986.93
2023-07-11T06:42:42.945Z,986.93
2023-07-11T06:43:42.950Z,986.93
2023-07-11T06:44:42.911Z,986.92
2023-07-11T06:45:42.997Z,986.91
2023-07-11T06:46:42.897Z,986.91
2023-07-11T06:47:42.913Z,986.91
2023-07-11T06:48:42.868Z,986.90
2023-07-11T06:49:42.852Z,986.88
2023-07-11T06:50:42.891Z,986.87
2023-07-11T06:51:42.819Z,986.86
2023-07-11T06:52:42.818Z,986.85
2023-07-11T06:53:42.812Z,986.84
2023-07-11T06:54:42.790Z,986.85
2023-07-11T06:55:42.829Z,986.86
2023-07-11T06:56:42.791Z,986.87
2023-07-11T06:57:42.787Z,986.87
2023-07-11T06:58:42.761Z,986.86
2023-07-11T06:59:42.735Z,986.86
2023-07-11T07:00:42.743Z,986.84
2023-07-11T07:01:43.061Z,986.83
2023-07-11T07:02:42.767Z,986.82
2023-07-11T07:03:42.787Z,986.81
2023-07-11T07:04:42.700Z,986.80
2023-07-11T07:05:42.685Z,986.79
2023-07-11T07:06:42.689Z,986.79
2023-07-11T07:07:42.697Z,986.79
2023-07-11T07:08:42.659Z,986.79
2023-07-11T07:09:42.646Z,986.77
2023-07-11T07:10:42.641Z,986.77
2023-07-11T07:11:42.769Z,986.76
2023-07-11T07:12:42.636Z,986.77
2023-07-11T07:13:52.109Z,986.77
2023-07-11T07:14:42.651Z,986.75
2023-07-11T07:15:42.621Z,986.75
2023-07-11T07:16:42.620Z,986.75
2023-07-11T07:17:42.622Z,986.75
2023-07-11T07:18:42.563Z,986.73
2023-07-11T07:19:42.547Z,986.72
2023-07-11T07:20:55.822Z,986.70
2023-07-11T07:21:42.529Z,986.69
2023-07-11T07:22:42.513Z,986.68
2023-07-11T07:23:42.560Z,986.68
2023-07-11T07:24:42.490Z,986.67
2023-07-11T07:25:42.482Z,986.66
2023-07-11T07:26:42.468Z,986.65
2023-07-11T07:27:42.446Z,986.63
2023-07-11T07:28:42.448Z,986.62
2023-07-11T07:29:42.454Z,986.60
2023-07-11T07:30:42.460Z,986.58
2023-07-11T07:31:42.549Z,986.58
2023-07-11T07:32:42.513Z,986.56
2023-07-11T07:33:42.387Z,986.55
2023-07-11T07:34:42.390Z,986.54
2023-07-11T07:35:42.403Z,986.53
2023-07-11T07:36:42.383Z,986.52
2023-07-11T07:37:42.351Z,986.50
2023-07-11T07:38:42.419Z,986.49
2023-07-11T07:39:42.332Z,986.48
2023-07-11T07:40:42.322Z,986.49
2023-07-11T07:41:42.454Z,986.48
2023-07-11T07:42:42.350Z,986.47
2023-07-11T07:43:42.295Z,986.47
2023-07-11T07:44:42.269Z,986.45
2023-07-11T07:45:42.252Z,986.45
2023-07-11T07:46:42.328Z,986.45
2023-07-11T07:47:42.340Z,986.46
2023-07-11T07:48:42.511Z,986.46
2023-07-11T07:49:54.150Z,986.46
2023-07-11T07:50:42.240Z,986.45
2023-07-11T07:51:42.212Z,986.44
2023-07-11T07:52:42.203Z,986.43
2023-07-11T07:53:42.664Z,986.41
2023-07-11T07:54:42.188Z,986.40
2023-07-11T07:55:42.170Z,986.40
2023-07-11T07:56:42.172Z,986.39
2023-07-11T07:57:42.157Z,986.36
2023-07-11T07:58:44.503Z,986.37
2023-07-11T07:59:42.115Z,986.34
2023-07-11T08:00:42.126Z,986.33
2023-07-11T08:01:42.115Z,986.32
2023-07-11T08:02:42.114Z,986.32
2023-07-11T08:03:42.357Z,986.31
2023-07-11T08:04:42.097Z,986.30
2023-07-11T08:05:42.057Z,986.29
2023-07-11T08:06:42.060Z,986.28
2023-07-11T08:07:42.535Z,986.25
2023-07-11T08:08:42.036Z,986.22
2023-07-11T08:09:42.024Z,986.19
2023-07-11T08:10:42.006Z,986.16
2023-07-11T08:11:41.988Z,986.14
2023-07-11T08:12:41.988Z,986.12
2023-07-11T08:13:58.397Z,986.11
2023-07-11T08:14:42.103Z,986.10
2023-07-11T08:15:41.967Z,986.08
2023-07-11T08:16:41.961Z,986.07
2023-07-11T08:17:42.040Z,986.06
2023-07-11T08:18:41.941Z,986.04
2023-07-11T08:19:41.938Z,986.04
2023-07-11T08:20:41.902Z,986.03
2023-07-11T08:21:41.895Z,986.03
2023-07-11T08:22:41.899Z,986.02
2023-07-11T08:23:41.859Z,986.02
2023-07-11T08:24:41.891Z,986.01
2023-07-11T08:25:41.841Z,985.99
2023-07-11T08:26:41.856Z,985.97
2023-07-11T08:27:41.813Z,985.95
2023-07-11T08:28:41.818Z,985.95
2023-07-11T08:29:41.801Z,985.94
2023-07-11T08:30:41.851Z,985.92
2023-07-11T08:31:41.800Z,985.91
2023-07-11T08:32:44.694Z,985.88
2023-07-11T08:33:41.776Z,985.86
2023-07-11T08:34:41.775Z,985.85
2023-07-11T08:35:41.757Z,985.85
2023-07-11T08:36:41.739Z,985.84
2023-07-11T08:37:41.711Z,985.83
2023-07-11T08:38:41.716Z,985.82
2023-07-11T08:39:41.722Z,985.81
2023-07-11T08:40:48.247Z,985.81
2023-07-11T08:41:41.709Z,985.80
2023-07-11T08:42:41.716Z,985.77
2023-07-11T08:43:41.683Z,985.78
2023-07-11T08:44:41.679Z,985.78
2023-07-11T08:45:41.712Z,985.78
2023-07-11T08:46:41.675Z,985.79
2023-07-11T08:47:41.657Z,985.80
2023-07-11T08:48:41.633Z,985.79
2023-07-11T08:49:41.588Z,985.77
2023-07-11T08:50:43.506Z,985.76
2023-07-11T08:51:41.596Z,985.74
2023-07-11T08:52:41.785Z,985.72
2023-07-11T08:53:41.547Z,985.71
2023-07-11T08:54:41.549Z,985.72
2023-07-11T08:55:41.536Z,985.71
2023-07-11T08:56:42.840Z,985.69
2023-07-11T08:57:41.548Z,985.67
2023-07-11T08:58:41.558Z,985.66
2023-07-11T08:59:41.488Z,985.65
2023-07-11T09:00:41.491Z,985.63
2023-07-11T09:01:41.497Z,985.60
2023-07-11T09:02:41.505Z,985.58
2023-07-11T09:03:41.478Z,985.58
2023-07-11T09:04:41.459Z,985.56
2023-07-11T09:05:41.510Z,985.54
2023-07-11T09:06:41.423Z,985.53
2023-07-11T09:07:41.403Z,985.51
2023-07-11T09:08:41.409Z,985.50
2023-07-11T09:09:41.378Z,985.48
2023-07-11T09:10:48.536Z,985.46
2023-07-11T09:11:41.376Z,985.44
2023-07-11T09:12:41.353Z,985.44
2023-07-11T09:13:41.465Z,985.43
2023-07-11T09:14:41.459Z,985.42
2023-07-11T09:15:41.324Z,985.40
2023-07-11T09:16:41.377Z,985.39
2023-07-11T09:17:41.499Z,985.39
2023-07-11T09:18:41.286Z,985.37
2023-07-11T09:19:41.284Z,985.35
2023-07-11T09:20:41.290Z,985.34
2023-07-11T09:21:41.284Z,985.33
2023-07-11T09:22:41.258Z,985.30
2023-07-11T09:23:41.257Z,985.27
2023-07-11T09:24:41.232Z,985.25
2023-07-11T09:25:41.253Z,985.24
2023-07-11T09:26:41.273Z,985.24
2023-07-11T09:27:41.214Z,985.22
2023-07-11T09:28:41.202Z,985.21
2023-07-11T09:29:41.166Z,985.18
2023-07-11T09:30:41.180Z,985.16
2023-07-11T09:31:41.272Z,985.15
2023-07-11T09:32:41.242Z,985.12
2023-07-11T09:33:41.143Z,985.12
2023-07-11T09:34:41.133Z,985.12
2023-07-11T09:35:41.121Z,985.13
2023-07-11T09:36:41.117Z,985.11
2023-07-11T09:37:41.102Z,985.10
2023-07-11T09:38:41.118Z,985.10
2023-07-11T09:39:41.090Z,985.09
2023-07-11T09:40:41.054Z,985.09
2023-07-11T09:41:49.662Z,985.05
2023-07-11T09:42:41.037Z,985.02
2023-07-11T09:43:41.067Z,984.99
2023-07-11T09:44:41.062Z,984.98
2023-07-11T09:45:41.083Z,984.97
2023-07-11T09:46:41.056Z,984.93
2023-07-11T09:47:41.034Z,984.91
2023-07-11T09:48:42.105Z,984.90
2023-07-11T09:49:41.012Z,984.90
2023-07-11T09:50:46.411Z,984.89
2023-07-11T09:51:40.941Z,984.88
2023-07-11T09:52:41.019Z,984.88
2023-07-11T09:53:40.936Z,984.88
2023-07-11T09:54:40.910Z,984.87
2023-07-11T09:55:40.912Z,984.87
2023-07-11T09:56:40.887Z,984.83
2023-07-11T09:57:40.906Z,984.84
2023-07-11T09:58:40.924Z,984.86
2023-07-11T09:59:40.892Z,984.83
2023-07-11T10:00:40.893Z,984.83
2023-07-11T10:01:40.950Z,984.81
2023-07-11T10:02:40.883Z,984.81
2023-07-11T10:03:40.866Z,984.82
2023-07-11T10:04:42.237Z,984.85
2023-07-11T10:05:40.951Z,984.84
2023-07-11T10:07:40.789Z,984.81
2023-07-11T10:08:40.763Z,984.74
2023-07-11T10:09:40.780Z,984.78
2023-07-11T10:10:40.796Z,984.77
2023-07-11T10:11:40.746Z,984.78
2023-07-11T10:12:40.732Z,984.72
2023-07-11T10:14:40.792Z,984.67
2023-07-11T10:15:40.725Z,984.70
2023-07-11T10:16:40.710Z,984.67
2023-07-11T10:17:40.770Z,984.66
2023-07-11T10:18:40.666Z,984.66
2023-07-11T10:19:40.656Z,984.67
2023-07-11T10:20:40.722Z,984.70
2023-07-11T10:21:41.180Z,984.63
2023-07-11T10:22:40.620Z,984.61
2023-07-11T10:23:40.634Z,984.59
2023-07-11T10:24:40.666Z,984.57
2023-07-11T10:25:40.603Z,984.59
2023-07-11T10:26:40.588Z,984.58
2023-07-11T10:27:40.585Z,984.62
2023-07-11T10:28:40.578Z,984.60
2023-07-11T10:29:40.592Z,984.59
2023-07-11T10:30:40.549Z,984.58
2023-07-11T10:31:40.558Z,984.55
2023-07-11T10:32:40.564Z,984.51
2023-07-11T10:33:53.039Z,984.53
2023-07-11T10:34:40.546Z,984.58
2023-07-11T10:35:40.515Z,984.51
2023-07-11T10:36:40.481Z,984.51
2023-07-11T10:37:40.566Z,984.43
2023-07-11T10:38:40.466Z,984.43
2023-07-11T10:39:40.477Z,984.42
2023-07-11T10:40:40.480Z,984.41
2023-07-11T10:41:40.447Z,984.39
2023-07-11T10:42:40.431Z,984.40
2023-07-11T10:43:40.420Z,984.46
2023-07-11T10:44:40.426Z,984.41
2023-07-11T10:45:40.439Z,984.40
2023-07-11T10:46:40.427Z,984.41
2023-07-11T10:47:40.441Z,984.33
2023-07-11T10:48:40.392Z,984.34
2023-07-11T10:49:40.386Z,984.32
2023-07-11T10:50:40.383Z,984.33
2023-07-11T10:51:40.359Z,984.27
2023-07-11T10:52:40.343Z,984.25
2023-07-11T10:53:40.340Z,984.22
2023-07-11T10:54:40.321Z,984.23
2023-07-11T10:55:40.319Z,984.21
2023-07-11T10:56:40.274Z,984.18
2023-07-11T10:57:44.325Z,984.16
2023-07-11T10:58:40.255Z,984.16
2023-07-11T10:59:40.283Z,984.19
2023-07-11T11:00:40.332Z,984.17
2023-07-11T11:01:40.339Z,984.18
2023-07-11T11:02:40.270Z,984.18
2023-07-11T11:03:40.429Z,984.20
2023-07-11T11:04:40.220Z,984.13
2023-07-11T11:05:40.246Z,984.18
2023-07-11T11:06:40.239Z,984.11
2023-07-11T11:07:40.211Z,984.07
2023-07-11T11:08:40.186Z,984.01
2023-07-11T11:09:40.163Z,984.01
2023-07-11T11:10:40.155Z,984.01
2023-07-11T11:11:40.169Z,984.06
2023-07-11T11:12:40.146Z,984.01
2023-07-11T11:13:40.168Z,983.99
2023-07-11T11:14:40.087Z,983.92
2023-07-11T11:15:40.127Z,983.93
2023-07-11T11:16:40.135Z,983.89
2023-07-11T11:17:40.149Z,983.89
2023-07-11T11:18:40.078Z,983.87
2023-07-11T11:19:40.060Z,983.82
2023-07-11T11:20:45.118Z,983.80
2023-07-11T11:22:40.017Z,983.81
2023-07-11T11:23:40.002Z,983.82
2023-07-11T11:24:40.019Z,983.77
2023-07-11T11:25:39.996Z,983.76
2023-07-11T11:26:40.013Z,983.75
2023-07-11T11:27:39.994Z,983.73
2023-07-11T11:28:39.960Z,983.73
2023-07-11T11:29:39.971Z,983.70
2023-07-11T11:30:39.968Z,983.73
2023-07-11T11:31:39.985Z,983.71
2023-07-11T11:32:41.469Z,983.70
2023-07-11T11:33:39.934Z,983.67
2023-07-11T11:34:39.915Z,983.65
2023-07-11T11:35:39.891Z,983.65
2023-07-11T11:36:39.878Z,983.62
2023-07-11T11:37:39.905Z,983.58
2023-07-11T11:38:39.874Z,983.56
2023-07-11T11:39:39.848Z,983.57
2023-07-11T11:40:39.835Z,983.56
2023-07-11T11:41:39.843Z,983.56
2023-07-11T11:42:39.850Z,983.49
2023-07-11T11:45:58.423Z,983.48
2023-07-11T11:46:33.956Z,983.48
2023-07-11T11:49:43.337Z,983.40
2023-07-11T11:50:56.818Z,983.40
2023-07-11T11:51:41.159Z,983.33
2023-07-11T11:53:40.881Z,983.34
2023-07-11T11:54:40.890Z,983.31
2023-07-11T11:55:40.882Z,983.44
2023-07-11T11:56:40.870Z,983.40
2023-07-11T11:57:40.846Z,983.38
2023-07-11T11:58:40.855Z,983.35
2023-07-11T11:59:40.821Z,983.38
2023-07-11T12:00:40.843Z,983.36
2023-07-11T12:01:40.819Z,983.34
2023-07-11T12:02:40.880Z,983.27
2023-07-11T12:03:40.890Z,983.29
2023-07-11T12:04:40.890Z,983.32
2023-07-11T12:05:40.779Z,983.28
2023-07-11T12:06:40.792Z,983.25
2023-07-11T12:07:43.824Z,983.27
2023-07-11T12:08:40.803Z,983.22
2023-07-11T12:09:40.739Z,983.20
2023-07-11T12:10:40.805Z,983.22
2023-07-11T12:11:40.703Z,983.13
2023-07-11T12:12:40.706Z,983.12
2023-07-11T12:13:40.744Z,983.14
2023-07-11T12:14:40.707Z,983.12
2023-07-11T12:15:40.713Z,983.13
2023-07-11T12:16:42.328Z,983.09
2023-07-11T12:17:40.746Z,983.05
2023-07-11T12:18:40.656Z,983.01
2023-07-11T12:19:40.707Z,983.00
2023-07-11T12:20:40.755Z,983.00
2023-07-11T12:21:40.617Z,983.00
2023-07-11T12:22:40.623Z,983.03
2023-07-11T12:24:42.905Z,983.03
2023-07-11T12:25:40.665Z,982.98
2023-07-11T12:26:40.588Z,983.00
2023-07-11T12:27:40.567Z,982.97
2023-07-11T12:28:40.592Z,982.92
2023-07-11T12:29:40.583Z,982.89
2023-07-11T12:30:40.608Z,982.83
2023-07-11T12:31:40.557Z,982.83
2023-07-11T12:32:40.565Z,982.82
2023-07-11T12:33:40.518Z,982.82
2023-07-11T12:34:40.540Z,982.78
2023-07-11T12:35:40.496Z,982.80
2023-07-11T12:36:40.547Z,982.87
2023-07-11T12:37:40.518Z,982.84